Time;durP1;ratioP1;P1;durP2;ratioP2;P2;SDS_P1;SDS_P2;PMS_P1;PMS_P2;Temp;Humidity;BMP_temperature;BMP_pressure;BME280_temperature;BME280_humidity;BME280_pressure;Samples;Min_cycle;Max_cycle;Signal;HPM_P1;HPM_P2
2023/01/20 00:00:29;;;;;;;100.83;50.63;;;-1.60;99.90;;;;;;2603714;54;20120;31
2023/01/20 00:03:06;;;;;;;101.05;49.40;;;-1.60;99.90;;;;;;2603540;54;20275;31
2023/01/20 00:05:54;;;;;;;93.07;47.13;;;-1.60;99.90;;;;;;2603731;54;20030;31
2023/01/20 00:08:32;;;;;;;101.43;48.75;;;-1.60;99.90;;;;;;2603510;54;20985;31
2023/01/20 00:11:08;;;;;;;104.50;49.65;;;-1.60;99.90;;;;;;2603582;54;20025;31
2023/01/20 00:13:46;;;;;;;120.40;58.67;;;-1.60;99.90;;;;;;2603488;54;20026;31
2023/01/20 00:16:21;;;;;;;104.55;52.05;;;-1.60;99.90;;;;;;2602734;54;20105;31
2023/01/20 00:19:00;;;;;;;87.10;44.20;;;-1.60;99.90;;;;;;2602940;54;20037;31
2023/01/20 00:21:38;;;;;;;110.05;54.15;;;-1.60;99.90;;;;;;2603524;54;20272;31
2023/01/20 00:24:16;;;;;;;101.32;49.20;;;-1.60;99.90;;;;;;2603276;54;20073;31
2023/01/20 00:26:53;;;;;;;104.15;54.97;;;-1.60;99.90;;;;;;2603612;54;20041;31
2023/01/20 00:29:31;;;;;;;114.25;61.20;;;-1.60;99.90;;;;;;2602657;54;20022;31
2023/01/20 00:32:07;;;;;;;90.57;46.17;;;-1.60;99.90;;;;;;2603525;54;20943;31
2023/01/20 00:34:41;;;;;;;;;;;-1.60;99.90;;;;;;2604043;54;20059;31
2023/01/20 00:37:20;;;;;;;84.60;44.00;;;-1.60;99.90;;;;;;2622125;46;19941;31
2023/01/20 00:39:57;;;;;;;89.43;44.75;;;-1.70;99.90;;;;;;2621946;46;20044;31
2023/01/20 00:42:34;;;;;;;101.40;52.90;;;-1.60;99.90;;;;;;2603318;54;20896;31
2023/01/20 00:45:11;;;;;;;179.45;89.03;;;-1.70;99.90;;;;;;2603378;54;20924;31
2023/01/20 00:47:48;;;;;;;171.30;89.32;;;-1.70;99.90;;;;;;2603329;54;21026;31
2023/01/20 00:50:23;;;;;;;101.53;53.33;;;-1.70;99.90;;;;;;2603500;54;20023;31
2023/01/20 00:53:02;;;;;;;96.07;49.20;;;-1.70;99.90;;;;;;2603371;54;20026;31
2023/01/20 00:55:37;;;;;;;93.15;48.33;;;-1.70;99.90;;;;;;2702173;39;22693;31
2023/01/20 00:58:12;;;;;;;85.75;42.72;;;-1.70;99.90;;;;;;2603570;54;20874;31
2023/01/20 01:00:49;;;;;;;80.10;41.67;;;-1.70;99.90;;;;;;2621969;46;20037;31
2023/01/20 01:03:27;;;;;;;73.20;37.03;;;-1.70;99.90;;;;;;2603483;54;19935;31
2023/01/20 01:06:09;;;;;;;88.00;46.28;;;-1.80;99.90;;;;;;2603502;54;20041;31
2023/01/20 01:08:49;;;;;;;108.38;59.83;;;-1.80;99.90;;;;;;2603482;54;20022;31
2023/01/20 01:11:24;;;;;;;86.20;43.97;;;-1.80;99.90;;;;;;2701916;39;22535;31
2023/01/20 01:14:02;;;;;;;83.55;42.45;;;-1.80;99.90;;;;;;2603489;54;20029;31
2023/01/20 01:16:38;;;;;;;92.47;42.17;;;-1.80;99.90;;;;;;2621720;46;20087;31
2023/01/20 01:19:16;;;;;;;80.33;40.20;;;-1.90;99.90;;;;;;2603516;54;20027;31
2023/01/20 01:21:51;;;;;;;91.93;44.33;;;-1.90;99.90;;;;;;2701222;39;22376;31
2023/01/20 01:24:29;;;;;;;79.07;42.50;;;-1.90;99.90;;;;;;2603266;54;20813;31
2023/01/20 01:27:06;;;;;;;82.47;43.60;;;-1.90;99.90;;;;;;2603252;54;20285;31
2023/01/20 01:29:40;;;;;;;;;;;-1.90;99.90;;;;;;2621956;46;20030;31
2023/01/20 01:32:19;;;;;;;94.60;47.42;;;-2.00;99.90;;;;;;2621884;46;20734;31
2023/01/20 01:34:54;;;;;;;87.45;46.03;;;-1.90;99.90;;;;;;2603209;54;20023;31
2023/01/20 01:37:30;;;;;;;102.15;53.55;;;-2.00;99.90;;;;;;2603300;54;20022;31
2023/01/20 01:40:10;;;;;;;82.72;41.75;;;-2.00;99.90;;;;;;2603359;54;20045;31
2023/01/20 01:42:47;;;;;;;83.68;41.67;;;-2.00;99.90;;;;;;2603417;54;20824;31
2023/01/20 01:45:27;;;;;;;101.70;48.33;;;-2.00;99.90;;;;;;2603266;54;20973;31
2023/01/20 01:48:05;;;;;;;107.63;53.33;;;-2.00;99.90;;;;;;2603375;54;20246;31
2023/01/20 01:50:41;;;;;;;105.55;52.13;;;-2.00;99.90;;;;;;2603451;54;20868;31
2023/01/20 01:53:19;;;;;;;99.93;47.45;;;-2.10;99.90;;;;;;2602546;54;20836;31
2023/01/20 01:56:01;;;;;;;101.53;48.28;;;-2.10;99.90;;;;;;2602278;54;20082;31
2023/01/20 01:58:39;;;;;;;88.20;43.95;;;-2.10;99.90;;;;;;2602261;54;20921;31
2023/01/20 02:01:15;;;;;;;94.47;44.67;;;-2.10;99.90;;;;;;2603231;54;20827;31
2023/01/20 02:03:54;;;;;;;78.88;41.20;;;-2.10;99.90;;;;;;2603146;54;20089;31
2023/01/20 02:06:31;;;;;;;82.57;40.53;;;-2.10;99.90;;;;;;2603127;54;20030;31
2023/01/20 02:09:07;;;;;;;86.82;41.50;;;-2.10;99.90;;;;;;2602546;54;20057;31
2023/01/20 02:11:47;;;;;;;85.38;44.78;;;-2.10;99.90;;;;;;2602564;54;20046;31
2023/01/20 02:14:23;;;;;;;92.05;46.35;;;-2.10;99.90;;;;;;2603134;54;20950;31
2023/01/20 02:17:02;;;;;;;93.45;46.80;;;-2.20;99.90;;;;;;2602923;54;20811;31
2023/01/20 02:20:07;;;;;;;73.57;37.90;;;-2.20;99.90;;;;;;2602823;54;20105;31
2023/01/20 02:22:45;;;;;;;93.40;47.30;;;-2.20;99.90;;;;;;2602843;54;20109;31
2023/01/20 02:25:51;;;;;;;74.03;40.00;;;-2.20;99.90;;;;;;2603092;54;20884;31
2023/01/20 02:28:47;;;;;;;85.65;40.17;;;-2.20;99.90;;;;;;2603075;54;20949;31
2023/01/20 02:31:46;;;;;;;81.70;41.45;;;-2.20;99.90;;;;;;2603227;54;20030;31
2023/01/20 02:34:27;;;;;;;72.18;36.88;;;-2.20;99.90;;;;;;2603453;54;20050;31
2023/01/20 02:37:07;;;;;;;97.07;49.00;;;-2.20;99.90;;;;;;2621341;46;20984;31
2023/01/20 02:39:43;;;;;;;76.63;41.73;;;-2.20;99.90;;;;;;2603008;54;21181;31
2023/01/20 02:42:21;;;;;;;;;;;-2.20;99.90;;;;;;2603345;54;20247;31
2023/01/20 02:44:55;;;;;;;74.43;37.33;;;-2.20;99.90;;;;;;2621097;46;22261;31
2023/01/20 02:47:32;;;;;;;78.57;38.72;;;-2.20;99.90;;;;;;2603086;54;20894;31
2023/01/20 02:50:12;;;;;;;97.40;48.22;;;-2.20;99.90;;;;;;2603064;54;20957;31
2023/01/20 02:52:52;;;;;;;98.37;47.00;;;-2.20;99.90;;;;;;2602886;54;21067;31
2023/01/20 02:55:30;;;;;;;108.30;52.28;;;-2.20;99.90;;;;;;2603328;54;20272;31
2023/01/20 02:58:06;;;;;;;86.45;44.15;;;-2.10;99.90;;;;;;2602087;54;20569;31
2023/01/20 03:00:45;;;;;;;90.15;46.13;;;-2.20;99.90;;;;;;2615565;47;20031;31
2023/01/20 03:03:24;;;;;;;95.63;44.67;;;-2.20;99.90;;;;;;2602892;54;20017;31
2023/01/20 03:05:57;;;;;;;106.50;52.28;;;-2.10;99.90;;;;;;2603115;54;20030;31
2023/01/20 03:08:35;;;;;;;97.55;46.90;;;-2.10;99.90;;;;;;2700764;39;22455;31
2023/01/20 03:11:11;;;;;;;98.88;47.10;;;-2.10;99.90;;;;;;2602833;54;20081;31
2023/01/20 03:13:50;;;;;;;100.68;46.17;;;-2.10;99.90;;;;;;2620962;47;20053;31
2023/01/20 03:16:27;;;;;;;86.28;45.28;;;-2.10;99.90;;;;;;2602992;54;20030;31
2023/01/20 03:19:02;;;;;;;113.65;55.25;;;-2.10;99.90;;;;;;2603064;54;20026;31
2023/01/20 03:21:38;;;;;;;83.32;41.67;;;-2.20;99.90;;;;;;2602719;54;20022;31
2023/01/20 03:24:26;;;;;;;79.90;38.58;;;-2.10;99.90;;;;;;2602699;54;20037;31
2023/01/20 03:27:01;;;;;;;83.13;44.20;;;-2.20;99.90;;;;;;2602804;54;20078;31
2023/01/20 03:29:37;;;;;;;87.32;43.42;;;-2.10;99.90;;;;;;2602662;54;20254;31
2023/01/20 03:32:14;;;;;;;94.10;47.27;;;-2.10;99.90;;;;;;2603223;54;20027;31
2023/01/20 03:34:49;;;;;;;94.68;46.22;;;-2.10;99.90;;;;;;2622061;46;20862;31
2023/01/20 03:37:27;;;;;;;108.30;49.83;;;-2.20;99.90;;;;;;2603783;54;20029;31
2023/01/20 03:40:10;;;;;;;89.47;43.25;;;-2.20;99.90;;;;;;2602831;54;20027;31
2023/01/20 03:42:47;;;;;;;90.65;43.40;;;-2.20;99.90;;;;;;2603159;46;20038;31
2023/01/20 03:45:26;;;;;;;93.05;45.50;;;-2.20;99.90;;;;;;2602637;54;20048;31
2023/01/20 03:48:03;;;;;;;91.80;43.83;;;-2.20;99.90;;;;;;2603672;54;20806;31
2023/01/20 03:50:41;;;;;;;106.65;54.28;;;-2.20;99.90;;;;;;2603524;54;20996;31
2023/01/20 03:53:23;;;;;;;115.65;54.90;;;-2.20;99.90;;;;;;2603570;54;20109;31
2023/01/20 03:56:04;;;;;;;132.33;62.37;;;-2.20;99.90;;;;;;2603523;54;20914;31
2023/01/20 03:58:39;;;;;;;123.95;58.00;;;-2.20;99.90;;;;;;2603627;54;20325;31
2023/01/20 04:01:16;;;;;;;130.88;61.17;;;-2.20;99.90;;;;;;2603712;54;20085;31
2023/01/20 04:03:55;;;;;;;123.87;60.07;;;-2.20;99.90;;;;;;2603651;54;20027;31
2023/01/20 04:06:29;;;;;;;133.55;65.80;;;-2.30;99.90;;;;;;2621899;46;20905;31
2023/01/20 04:09:06;;;;;;;100.23;50.07;;;-2.20;99.90;;;;;;2602849;54;20015;31
2023/01/20 04:11:47;;;;;;;83.23;41.47;;;-2.20;99.90;;;;;;2602908;54;20929;31
2023/01/20 04:14:24;;;;;;;117.20;57.00;;;-2.20;99.90;;;;;;2602725;54;20381;31
2023/01/20 04:17:01;;;;;;;106.45;51.97;;;-2.30;99.90;;;;;;2602792;54;20041;31
2023/01/20 04:19:38;;;;;;;113.32;54.22;;;-2.30;99.90;;;;;;2602726;54;20085;31
2023/01/20 04:22:16;;;;;;;89.68;46.15;;;-2.30;99.90;;;;;;2603464;54;20948;31
2023/01/20 04:27:30;;;;;;;98.90;48.03;;;-2.30;99.90;;;;;;2603667;54;20022;31
2023/01/20 04:30:07;;;;;;;99.35;47.70;;;-2.40;99.90;;;;;;2602676;54;20034;31
2023/01/20 04:32:46;;;;;;;95.20;46.00;;;-2.40;99.90;;;;;;2602709;54;20036;31
2023/01/20 04:35:24;;;;;;;95.15;47.63;;;-2.40;99.90;;;;;;2603550;54;20905;31
2023/01/20 04:38:07;;;;;;;115.53;56.40;;;-2.40;99.90;;;;;;2603558;54;20939;31
2023/01/20 04:40:44;;;;;;;115.72;58.05;;;-2.40;99.90;;;;;;2603350;54;20253;31
2023/01/20 04:43:22;;;;;;;107.85;52.55;;;-2.50;99.90;;;;;;2603505;54;20026;31
2023/01/20 04:45:58;;;;;;;92.40;45.92;;;-2.50;99.90;;;;;;2603295;54;20065;31
2023/01/20 04:48:36;;;;;;;96.63;48.20;;;-2.50;99.90;;;;;;2603550;54;20830;31
2023/01/20 04:51:12;;;;;;;99.90;47.92;;;-2.50;99.90;;;;;;2603580;54;21287;31
2023/01/20 04:53:48;;;;;;;107.05;52.45;;;-2.50;99.90;;;;;;2603475;54;20816;31
2023/01/20 04:56:26;;;;;;;84.95;39.67;;;-2.60;99.90;;;;;;2602656;54;20894;31
2023/01/20 04:59:09;;;;;;;94.87;49.53;;;-2.60;99.90;;;;;;2602217;54;20917;31
2023/01/20 05:01:47;;;;;;;99.18;47.38;;;-2.60;99.90;;;;;;2602568;54;20995;31
2023/01/20 05:04:23;;;;;;;89.60;45.10;;;-2.60;99.90;;;;;;2602526;54;20956;31
2023/01/20 05:06:59;;;;;;;88.30;43.10;;;-2.70;99.90;;;;;;2602592;54;20026;31
2023/01/20 05:09:35;;;;;;;110.20;50.45;;;-2.60;99.90;;;;;;2603326;54;20904;31
2023/01/20 05:12:12;;;;;;;102.38;50.53;;;-2.70;99.90;;;;;;2603226;54;20788;31
2023/01/20 05:14:50;;;;;;;100.27;52.23;;;-2.70;99.90;;;;;;2603313;54;20939;31
2023/01/20 05:17:28;;;;;;;126.63;61.60;;;-2.70;99.90;;;;;;2603522;54;21040;31
2023/01/20 05:20:06;;;;;;;132.80;63.22;;;-2.70;99.90;;;;;;2602620;54;20868;31
2023/01/20 05:22:42;;;;;;;129.35;65.30;;;-2.70;99.90;;;;;;2602949;54;20065;31
2023/01/20 05:25:17;;;;;;;135.55;66.20;;;-2.70;99.90;;;;;;2603234;54;20045;31
2023/01/20 05:27:53;;;;;;;131.50;67.20;;;-2.60;99.90;;;;;;2603323;54;20871;31
2023/01/20 05:30:28;;;;;;;131.27;64.95;;;-2.60;99.90;;;;;;2602613;54;20036;31
2023/01/20 05:33:06;;;;;;;123.77;61.73;;;-2.60;99.90;;;;;;2603382;54;19966;31
2023/01/20 05:35:41;;;;;;;139.35;67.40;;;-2.50;99.90;;;;;;2603188;54;20263;31
2023/01/20 05:38:19;;;;;;;122.75;60.00;;;-2.50;99.90;;;;;;2621594;46;20052;31
2023/01/20 05:41:02;;;;;;;108.82;56.15;;;-2.50;99.90;;;;;;2603610;54;20093;31
2023/01/20 05:43:40;;;;;;;114.30;57.28;;;-2.50;99.90;;;;;;2603090;54;20038;31
2023/01/20 05:46:17;;;;;;;134.67;66.40;;;-2.50;99.90;;;;;;2602997;54;20031;31
2023/01/20 05:48:55;;;;;;;128.13;64.82;;;-2.40;99.90;;;;;;2603454;54;20321;31
2023/01/20 05:51:35;;;;;;;148.55;73.72;;;-2.50;99.90;;;;;;2603350;54;20030;31
2023/01/20 05:54:10;;;;;;;138.40;68.20;;;-2.40;99.90;;;;;;2603464;54;20093;31
2023/01/20 05:56:47;;;;;;;126.68;64.20;;;-2.40;99.90;;;;;;2603107;54;20022;31
2023/01/20 05:59:22;;;;;;;;;;;-2.40;99.90;;;;;;2602783;54;20026;31
2023/01/20 06:01:56;;;;;;;110.20;54.78;;;-2.30;99.90;;;;;;2602453;54;19948;31
2023/01/20 06:04:34;;;;;;;110.40;53.73;;;-2.30;99.90;;;;;;2603034;54;20057;31
2023/01/20 06:07:12;;;;;;;138.15;66.20;;;-2.30;99.90;;;;;;2603314;54;20042;31
2023/01/20 06:09:49;;;;;;;115.03;58.50;;;-2.30;99.90;;;;;;2602330;54;20081;31
2023/01/20 06:12:24;;;;;;;110.20;54.65;;;-2.20;99.90;;;;;;2603082;54;20065;31
2023/01/20 06:14:59;;;;;;;104.30;54.40;;;-2.20;99.90;;;;;;2603105;54;20124;31
2023/01/20 06:17:35;;;;;;;103.65;52.85;;;-2.20;99.90;;;;;;2603235;54;20101;31
2023/01/20 06:20:16;;;;;;;127.50;64.15;;;-2.20;99.90;;;;;;2603356;54;20022;31
2023/01/20 06:22:52;;;;;;;157.73;79.35;;;-2.10;99.90;;;;;;2603013;54;20922;31
2023/01/20 06:25:27;;;;;;;;;;;-2.10;99.90;;;;;;2603498;54;20026;31
2023/01/20 06:28:03;;;;;;;202.85;102.95;;;-2.20;99.90;;;;;;2603309;54;19940;31
2023/01/20 06:30:41;;;;;;;162.75;85.57;;;-2.20;99.90;;;;;;2602931;54;20061;31
2023/01/20 06:33:16;;;;;;;143.32;74.70;;;-2.30;99.90;;;;;;2611100;46;22403;31
2023/01/20 06:35:56;;;;;;;157.70;75.78;;;-2.30;99.90;;;;;;2602242;54;20022;31
2023/01/20 06:38:32;;;;;;;143.03;70.27;;;-2.30;99.90;;;;;;2602905;54;20787;31
2023/01/20 06:41:09;;;;;;;;;;;-2.40;99.90;;;;;;2603354;54;21103;31
2023/01/20 06:43:44;;;;;;;118.93;61.70;;;-2.40;99.90;;;;;;2621965;46;19934;31
2023/01/20 06:46:22;;;;;;;112.78;57.03;;;-2.40;99.90;;;;;;2602842;54;20065;31
2023/01/20 06:49:02;;;;;;;92.88;48.20;;;-2.40;99.90;;;;;;2603219;54;20026;31
2023/01/20 06:51:34;;;;;;;112.85;55.42;;;-2.40;99.90;;;;;;2603047;54;22412;31
2023/01/20 06:54:12;;;;;;;135.85;65.63;;;-2.40;99.90;;;;;;2603006;54;20061;31
2023/01/20 06:56:47;;;;;;;149.95;77.40;;;-2.40;99.90;;;;;;2603016;54;20147;31
2023/01/20 06:59:23;;;;;;;143.90;73.50;;;-2.40;99.90;;;;;;2602180;54;20037;31
2023/01/20 07:01:59;;;;;;;141.95;71.82;;;-2.40;99.90;;;;;;2602386;54;20050;31
2023/01/20 07:04:38;;;;;;;174.32;77.57;;;-2.40;99.90;;;;;;2602717;54;20140;31
2023/01/20 07:07:14;;;;;;;174.70;72.93;;;-2.40;99.90;;;;;;2602568;54;20161;31
2023/01/20 07:09:59;;;;;;;203.77;86.70;;;-2.50;99.90;;;;;;2603859;54;20919;31
2023/01/20 07:12:34;;;;;;;179.82;80.25;;;-2.50;99.90;;;;;;2603740;54;21104;31
2023/01/20 07:15:13;;;;;;;157.77;76.90;;;-2.50;99.90;;;;;;2603789;54;20855;31
2023/01/20 07:17:50;;;;;;;160.27;79.63;;;-2.50;99.90;;;;;;2603661;54;20048;31
2023/01/20 07:20:26;;;;;;;160.57;79.60;;;-2.40;99.90;;;;;;2602948;54;20933;31
2023/01/20 07:23:05;;;;;;;165.77;79.75;;;-2.50;99.90;;;;;;2603095;54;20052;31
2023/01/20 07:25:44;;;;;;;166.90;78.63;;;-2.40;99.90;;;;;;2603110;54;20917;31
2023/01/20 07:28:19;;;;;;;140.25;70.82;;;-2.40;99.90;;;;;;2602818;54;21103;31
2023/01/20 07:30:56;;;;;;;158.83;78.00;;;-2.40;99.90;;;;;;2602897;54;20844;31
2023/01/20 07:33:34;;;;;;;143.98;73.50;;;-2.40;99.90;;;;;;2602997;54;20900;31
2023/01/20 07:36:12;;;;;;;148.57;77.00;;;-2.20;99.90;;;;;;2603769;54;20852;31
2023/01/20 07:38:50;;;;;;;142.98;72.75;;;-1.90;99.90;;;;;;2603659;54;20877;31
2023/01/20 07:41:29;;;;;;;138.35;72.95;;;-1.50;99.90;;;;;;2603839;54;20967;31
2023/01/20 07:44:06;;;;;;;143.07;72.20;;;-1.10;99.90;;;;;;2603608;54;20085;31
2023/01/20 07:46:42;;;;;;;150.57;76.50;;;-0.60;99.90;;;;;;2603570;54;20909;31
2023/01/20 07:49:17;;;;;;;;;;;-0.20;99.90;;;;;;2604246;54;20276;31
2023/01/20 07:51:57;;;;;;;143.98;75.65;;;0.20;99.90;;;;;;2603227;54;19997;31
2023/01/20 07:54:34;;;;;;;148.73;75.88;;;0.70;99.90;;;;;;2603734;54;20022;31
2023/01/20 07:57:13;;;;;;;119.38;65.07;;;1.20;99.90;;;;;;2603436;54;20023;31
2023/01/20 07:59:52;;;;;;;124.03;69.32;;;1.90;99.90;;;;;;2621739;46;20779;31
2023/01/20 08:02:27;;;;;;;121.75;64.45;;;2.50;99.90;;;;;;2603966;54;20813;31
2023/01/20 08:05:03;;;;;;;121.10;66.55;;;2.90;99.90;;;;;;2603770;54;20029;31
2023/01/20 08:07:40;;;;;;;120.10;67.50;;;3.40;99.90;;;;;;2603810;54;20052;31
2023/01/20 08:10:16;;;;;;;117.32;51.13;;;3.80;99.90;;;;;;2603603;54;20111;31
2023/01/20 08:12:55;;;;;;;123.20;68.80;;;4.30;99.90;;;;;;2603524;54;20026;31
2023/01/20 08:15:30;;;;;;;119.15;64.65;;;4.80;99.90;;;;;;2603271;54;20865;31
2023/01/20 08:18:06;;;;;;;114.07;66.30;;;4.90;99.90;;;;;;2603373;54;20886;31
2023/01/20 08:20:43;;;;;;;124.95;68.70;;;5.00;99.90;;;;;;2622228;46;20033;31
2023/01/20 08:23:18;;;;;;;125.57;69.28;;;5.20;99.90;;;;;;2603566;54;20026;31
2023/01/20 08:26:00;;;;;;;124.63;70.27;;;5.20;99.90;;;;;;2603409;54;20907;31
2023/01/20 08:28:40;;;;;;;126.73;70.67;;;5.30;99.90;;;;;;2603665;54;20275;31
2023/01/20 08:31:16;;;;;;;120.63;71.00;;;5.40;99.90;;;;;;2603664;54;21043;31
2023/01/20 08:33:55;;;;;;;146.63;83.97;;;5.40;99.90;;;;;;2603809;54;20862;31
2023/01/20 08:36:33;;;;;;;189.02;106.60;;;5.40;99.90;;;;;;2603450;54;20822;31
2023/01/20 08:39:12;;;;;;;159.77;92.80;;;5.40;99.90;;;;;;2603535;54;20044;31
2023/01/20 08:41:49;;;;;;;165.32;105.20;;;5.60;99.90;;;;;;2621928;46;20019;31
2023/01/20 08:44:28;;;;;;;156.50;98.28;;;5.90;99.90;;;;;;2603549;54;20025;31
2023/01/20 08:47:03;;;;;;;135.10;76.15;;;6.10;99.90;;;;;;2603569;54;20759;31
2023/01/20 08:49:37;;;;;;;148.40;95.90;;;6.00;99.90;;;;;;2602696;54;22322;31
2023/01/20 08:52:15;;;;;;;152.43;101.22;;;6.00;99.90;;;;;;2603362;54;20030;31
2023/01/20 08:54:55;;;;;;;135.55;85.25;;;6.10;99.90;;;;;;2603546;54;20594;31
2023/01/20 08:57:34;;;;;;;135.30;87.78;;;6.10;99.90;;;;;;2602651;54;20105;31
2023/01/20 09:00:16;;;;;;;126.75;74.30;;;6.20;99.90;;;;;;2603445;54;20031;31
2023/01/20 09:02:53;;;;;;;111.87;68.63;;;6.20;99.90;;;;;;2603405;54;20905;31
2023/01/20 09:05:29;;;;;;;95.75;59.60;;;6.20;99.90;;;;;;2603575;54;20061;31
2023/01/20 09:08:02;;;;;;;95.87;58.33;;;6.10;99.90;;;;;;2602784;54;22480;31
2023/01/20 09:10:37;;;;;;;102.28;59.83;;;6.00;99.90;;;;;;2603338;54;20803;31
2023/01/20 09:13:14;;;;;;;92.90;57.65;;;6.00;99.90;;;;;;2603401;54;20898;31
2023/01/20 09:15:56;;;;;;;80.97;47.97;;;5.80;99.90;;;;;;2603143;54;21016;31
2023/01/20 09:18:33;;;;;;;72.20;42.15;;;5.70;99.90;;;;;;2603365;54;20073;31
2023/01/20 09:21:10;;;;;;;85.85;52.15;;;5.60;99.90;;;;;;2603430;54;20022;31
2023/01/20 09:23:47;;;;;;;99.07;58.10;;;5.50;99.90;;;;;;2602757;54;20983;31
2023/01/20 09:26:23;;;;;;;100.85;58.55;;;5.20;99.90;;;;;;2603220;54;20115;31
2023/01/20 09:29:11;;;;;;;99.70;55.42;;;5.10;99.90;;;;;;2603280;54;20026;31
2023/01/20 09:31:50;;;;;;;107.15;61.05;;;4.90;99.90;;;;;;2701863;39;21100;31
2023/01/20 09:34:29;;;;;;;112.20;62.75;;;4.80;99.90;;;;;;2603237;54;20847;31
2023/01/20 09:43:52;;;;;;;107.03;62.13;;;4.60;99.90;;;;;;2603630;54;20026;31
2023/01/20 09:45:36;;;;;;;105.25;58.70;;;4.30;99.90;;;;;;2603486;54;20042;31
2023/01/20 09:53:55;;;;;;;86.80;51.80;;;4.00;99.90;;;;;;2603288;54;20030;31
2023/01/20 09:56:31;;;;;;;96.20;56.17;;;4.10;99.90;;;;;;2603379;54;20049;31
2023/01/20 09:59:09;;;;;;;105.25;60.90;;;4.10;99.90;;;;;;2603169;54;20980;31
2023/01/20 10:01:46;;;;;;;95.80;56.33;;;4.20;99.90;;;;;;2603379;54;20069;31
2023/01/20 10:04:27;;;;;;;90.78;53.97;;;4.40;99.90;;;;;;2603225;54;20044;31
2023/01/20 10:07:05;;;;;;;94.80;53.33;;;4.40;99.90;;;;;;2603425;54;20104;31
2023/01/20 10:09:43;;;;;;;94.13;52.93;;;4.40;99.90;;;;;;2603119;54;20022;31
2023/01/20 10:12:21;;;;;;;91.35;49.92;;;4.50;99.90;;;;;;2702066;39;21011;31
2023/01/20 10:14:59;;;;;;;89.65;50.58;;;4.60;99.90;;;;;;2603319;54;20038;31
2023/01/20 10:17:44;;;;;;;90.35;52.80;;;4.60;99.90;;;;;;2603144;54;20903;31
2023/01/20 10:20:24;;;;;;;89.40;52.13;;;4.70;99.90;;;;;;2613121;46;22401;31
2023/01/20 10:23:06;;;;;;;83.35;52.55;;;4.70;99.90;;;;;;2602595;54;20874;31
2023/01/20 10:25:42;;;;;;;75.53;46.45;;;4.70;99.90;;;;;;2621538;46;20029;31
2023/01/20 10:28:19;;;;;;;93.00;50.17;;;4.50;99.90;;;;;;2603133;54;20856;31
2023/01/20 10:30:55;;;;;;;95.32;55.42;;;4.60;99.90;;;;;;2603422;54;20022;31
2023/01/20 10:33:37;;;;;;;96.17;55.10;;;4.50;99.90;;;;;;2602996;54;20890;31
2023/01/20 10:36:18;;;;;;;85.80;51.30;;;4.50;99.90;;;;;;2602964;54;20771;31
2023/01/20 10:38:56;;;;;;;87.90;49.10;;;4.50;99.90;;;;;;2603096;54;20103;31
2023/01/20 10:41:31;;;;;;;90.45;50.20;;;4.50;99.90;;;;;;2603080;54;20034;31
2023/01/20 10:44:08;;;;;;;83.40;49.35;;;4.50;99.90;;;;;;2602957;54;20030;31
2023/01/20 10:46:52;;;;;;;87.20;48.58;;;4.40;99.90;;;;;;2603032;54;20793;31
2023/01/20 10:49:55;;;;;;;81.20;45.33;;;4.40;99.90;;;;;;2602889;54;20089;31
2023/01/20 10:52:42;;;;;;;80.15;46.85;;;4.30;99.90;;;;;;2602745;54;21003;31
2023/01/20 10:55:23;;;;;;;81.18;47.00;;;4.20;99.90;;;;;;2621155;47;20823;31
2023/01/20 10:58:04;;;;;;;82.65;49.40;;;4.10;99.90;;;;;;2602881;54;20027;31
2023/01/20 11:00:39;;;;;;;75.43;45.42;;;4.00;99.90;;;;;;2603065;54;20153;31
2023/01/20 11:03:17;;;;;;;76.53;43.72;;;3.90;99.90;;;;;;2603082;54;20085;31
2023/01/20 11:05:53;;;;;;;74.47;43.40;;;3.90;99.90;;;;;;2621291;47;20027;31
2023/01/20 11:08:34;;;;;;;81.60;45.15;;;3.80;99.90;;;;;;2602777;54;20988;31
2023/01/20 11:11:08;;;;;;;77.55;42.35;;;3.70;99.90;;;;;;2603161;54;20030;31
2023/01/20 11:13:44;;;;;;;76.60;41.25;;;3.70;99.90;;;;;;2602987;54;20858;31
2023/01/20 11:16:21;;;;;;;71.75;40.40;;;3.70;99.90;;;;;;2602954;54;20023;31
2023/01/20 11:19:00;;;;;;;69.20;37.10;;;3.70;99.90;;;;;;2603214;54;20059;31
2023/01/20 11:21:37;;;;;;;66.00;37.77;;;3.60;99.90;;;;;;2602852;54;24067;31
2023/01/20 11:24:33;;;;;;;69.28;35.85;;;3.60;99.90;;;;;;2602926;54;21216;31
2023/01/20 11:27:09;;;;;;;64.03;36.78;;;3.70;99.90;;;;;;2602823;54;20935;31
2023/01/20 11:29:47;;;;;;;64.30;36.03;;;3.70;99.90;;;;;;2602982;54;20117;31
2023/01/20 11:32:30;;;;;;;66.30;34.75;;;3.70;99.90;;;;;;2603040;54;20321;31
2023/01/20 11:35:23;;;;;;;56.75;34.05;;;3.60;99.90;;;;;;2602840;54;20912;31
2023/01/20 11:37:57;;;;;;;57.95;31.35;;;3.60;99.90;;;;;;2602875;54;20046;31
2023/01/20 11:40:35;;;;;;;58.42;31.65;;;3.60;99.90;;;;;;2603086;54;20162;31
2023/01/20 11:43:13;;;;;;;52.63;29.98;;;3.50;99.90;;;;;;2602897;54;20022;31
2023/01/20 11:45:48;;;;;;;51.50;28.10;;;3.50;99.90;;;;;;2602622;54;20101;31
2023/01/20 11:48:25;;;;;;;44.30;24.98;;;3.50;99.90;;;;;;2602841;54;20113;31
2023/01/20 11:51:02;;;;;;;42.25;24.27;;;3.50;99.90;;;;;;2602632;54;20034;31
2023/01/20 11:53:38;;;;;;;41.37;25.17;;;3.50;99.90;;;;;;2603031;54;20927;31
2023/01/20 11:56:23;;;;;;;49.05;27.42;;;3.50;99.90;;;;;;2603563;54;20076;31
2023/01/20 11:59:02;;;;;;;45.42;27.00;;;3.60;99.90;;;;;;2621935;46;20027;31
2023/01/20 12:04:25;;;;;;;48.03;29.60;;;3.70;99.90;;;;;;2603859;54;20085;31
2023/01/20 12:07:02;;;;;;;46.90;29.23;;;3.60;99.90;;;;;;2622247;46;19938;31
2023/01/20 12:09:41;;;;;;;48.40;28.98;;;3.60;99.90;;;;;;2603686;54;20838;31
2023/01/20 12:12:23;;;;;;;50.63;27.13;;;3.60;99.90;;;;;;2603826;54;20030;31
2023/01/20 12:15:02;;;;;;;45.70;25.80;;;3.60;99.90;;;;;;2603522;54;20711;31
2023/01/20 12:17:43;;;;;;;41.85;23.98;;;3.50;99.90;;;;;;2603444;54;20029;31
2023/01/20 12:20:25;;;;;;;39.17;23.38;;;3.50;99.90;;;;;;2603433;54;20918;31
2023/01/20 12:23:11;;;;;;;45.20;24.95;;;3.50;99.90;;;;;;2603630;54;20026;31
2023/01/20 12:25:52;;;;;;;39.53;25.23;;;3.40;99.90;;;;;;2603159;54;20824;31
2023/01/20 12:28:33;;;;;;;41.85;26.73;;;3.40;99.90;;;;;;2603453;54;20971;31
2023/01/20 12:31:09;;;;;;;41.05;25.63;;;3.30;99.90;;;;;;2603250;54;20911;31
2023/01/20 12:33:42;;;;;;;43.60;25.50;;;3.30;99.90;;;;;;2615891;46;22415;31
2023/01/20 12:37:05;;;;;;;42.50;26.45;;;3.30;99.90;;;;;;2621473;46;20033;31
2023/01/20 12:40:15;;;;;;;41.83;25.47;;;3.30;99.90;;;;;;2603187;54;20863;31
2023/01/20 12:42:50;;;;;;;42.30;25.90;;;3.30;99.90;;;;;;2603374;54;21070;31
2023/01/20 12:45:36;;;;;;;38.90;25.90;;;3.30;99.90;;;;;;2603449;54;20087;31
2023/01/20 12:48:29;;;;;;;40.60;25.35;;;3.20;99.90;;;;;;2603339;54;20796;31
2023/01/20 12:51:16;;;;;;;37.90;25.95;;;3.30;99.90;;;;;;2603534;54;20820;31
2023/01/20 12:54:00;;;;;;;37.63;25.40;;;3.20;99.90;;;;;;2603371;54;20031;31
2023/01/20 12:56:39;;;;;;;41.20;24.93;;;3.20;99.90;;;;;;2603296;54;20064;31
2023/01/20 12:59:21;;;;;;;41.58;25.73;;;3.20;99.90;;;;;;2603384;54;20250;31
2023/01/20 13:02:36;;;;;;;37.33;24.77;;;3.20;99.90;;;;;;2603566;54;20030;31
2023/01/20 13:05:42;;;;;;;41.88;24.52;;;3.20;99.90;;;;;;2603278;54;20741;31
2023/01/20 13:08:19;;;;;;;38.67;24.10;;;3.20;99.90;;;;;;2603388;54;20034;31
2023/01/20 13:11:01;;;;;;;37.70;24.80;;;3.20;99.90;;;;;;2603219;54;20085;31
2023/01/20 13:16:16;;;;;;;43.47;27.05;;;3.10;99.90;;;;;;2621957;46;20023;31
2023/01/20 13:19:05;;;;;;;42.13;26.30;;;3.10;99.90;;;;;;2603573;54;20085;31
2023/01/20 13:21:41;;;;;;;43.50;27.30;;;3.10;99.90;;;;;;2603448;54;20124;31
2023/01/20 13:24:27;;;;;;;47.42;26.50;;;3.10;99.90;;;;;;2622068;46;20018;31
2023/01/20 13:27:03;;;;;;;48.55;28.17;;;3.00;99.90;;;;;;2621651;46;20848;31
2023/01/20 13:29:45;;;;;;;51.72;29.70;;;3.10;99.90;;;;;;2603301;54;20817;31
2023/01/20 13:32:34;;;;;;;47.30;27.30;;;3.00;99.90;;;;;;2602664;54;20939;31
2023/01/20 13:35:51;;;;;;;45.87;27.90;;;3.00;99.90;;;;;;2603355;54;20081;31
2023/01/20 13:38:32;;;;;;;46.70;28.33;;;3.00;99.90;;;;;;2603066;54;20976;31
2023/01/20 13:41:07;;;;;;;47.60;28.92;;;3.00;99.90;;;;;;2603338;54;20896;31
2023/01/20 13:43:52;;;;;;;39.57;25.40;;;3.00;99.90;;;;;;2603423;54;20801;31
2023/01/20 13:46:47;;;;;;;33.78;22.83;;;3.00;99.90;;;;;;2603117;54;20038;31
2023/01/20 13:49:41;;;;;;;38.05;23.55;;;3.00;99.90;;;;;;2603637;54;20031;31
2023/01/20 13:52:17;;;;;;;35.45;22.00;;;2.90;99.90;;;;;;2603127;54;20901;31
2023/01/20 13:54:57;;;;;;;38.97;23.03;;;2.90;99.90;;;;;;2603191;54;20026;31
2023/01/20 13:57:41;;;;;;;35.50;21.25;;;2.80;99.90;;;;;;2603367;54;20030;31